Time;durP1;ratioP1;P1;durP2;ratioP2;P2;SDS_P1;SDS_P2;PMS_P1;PMS_P2;Temp;Humidity;BMP_temperature;BMP_pressure;BME280_temperature;BME280_humidity;BME280_pressure;Samples;Min_cycle;Max_cycle;Signal;HPM_P1;HPM_P2
2021/06/11 00:00:46;;;;;;;3.25;2.38;;;;;;;;;;8326112;28;20528;-68
2021/06/11 00:04:51;;;;;;;5.28;3.03;;;;;;;;;;8323156;28;20479;-67
2021/06/11 00:08:55;;;;;;;5.55;2.85;;;;;;;;;;8324870;28;20482;-67
2021/06/11 00:13:00;;;;;;;7.25;2.95;;;;;;;;;;8326778;28;20494;-67
2021/06/11 00:17:08;;;;;;;5.03;3.00;;;;;;;;;;8328771;28;20461;-67
2021/06/11 00:21:13;;;;;;;4.93;2.95;;;;;;;;;;8326774;28;20398;-68
2021/06/11 00:25:22;;;;;;;7.40;3.25;;;;;;;;;;8326265;28;20469;-67
2021/06/11 00:29:37;;;;;;;7.15;2.70;;;;;;;;;;8325211;28;20048;-67
2021/06/11 00:33:42;;;;;;;5.15;2.70;;;;;;;;;;8328341;28;20366;-67
2021/06/11 00:37:47;;;;;;;8.60;3.08;;;;;;;;;;8324628;28;20509;-66
2021/06/11 00:41:53;;;;;;;6.65;2.72;;;;;;;;;;8325531;28;20052;-66
2021/06/11 00:45:57;;;;;;;3.92;2.72;;;;;;;;;;8325342;28;20405;-67
2021/06/11 00:50:05;;;;;;;5.25;2.70;;;;;;;;;;8328071;28;20368;-67
2021/06/11 00:54:11;;;;;;;6.38;3.03;;;;;;;;;;8324346;28;20364;-67
2021/06/11 00:58:18;;;;;;;4.95;3.05;;;;;;;;;;8325392;28;20510;-67
2021/06/11 01:02:23;;;;;;;4.15;2.90;;;;;;;;;;8324416;28;20508;-67
2021/06/11 01:06:29;;;;;;;4.97;2.88;;;;;;;;;;8322988;28;20382;-67
2021/06/11 01:10:34;;;;;;;5.28;2.70;;;;;;;;;;8322702;28;20466;-66
2021/06/11 01:14:41;;;;;;;7.75;3.28;;;;;;;;;;8324782;28;20454;-67
2021/06/11 01:18:46;;;;;;;5.97;2.92;;;;;;;;;;8324236;28;20378;-66
2021/06/11 01:23:47;;;;;;;6.65;2.80;;;;;;;;;;8323181;28;20048;-66
2021/06/11 01:27:52;;;;;;;6.15;2.67;;;;;;;;;;8304510;28;20502;-67
2021/06/11 01:32:05;;;;;;;6.00;2.88;;;;;;;;;;8323985;28;20359;-66
2021/06/11 01:36:12;;;;;;;6.05;2.85;;;;;;;;;;8323171;28;20066;-67
2021/06/11 01:40:18;;;;;;;4.32;2.60;;;;;;;;;;8321350;28;20352;-67
2021/06/11 01:44:25;;;;;;;4.55;2.78;;;;;;;;;;8323479;28;20473;-67
2021/06/11 01:48:30;;;;;;;4.25;3.15;;;;;;;;;;8322384;28;20340;-66
2021/06/11 01:52:37;;;;;;;3.83;3.08;;;;;;;;;;8321592;28;20494;-67
2021/06/11 01:56:43;;;;;;;4.63;2.95;;;;;;;;;;8323253;28;20119;-66
2021/06/11 02:00:48;;;;;;;4.90;3.10;;;;;;;;;;8322898;28;20055;-66
2021/06/11 02:04:54;;;;;;;6.90;3.20;;;;;;;;;;8323046;28;20367;-66
2021/06/11 02:08:59;;;;;;;8.65;3.63;;;;;;;;;;8322232;28;20381;-67
2021/06/11 02:13:07;;;;;;;5.93;3.03;;;;;;;;;;8321313;28;20358;-67
2021/06/11 02:17:13;;;;;;;4.47;3.05;;;;;;;;;;8321594;28;20394;-67
2021/06/11 02:21:18;;;;;;;4.68;3.17;;;;;;;;;;8322448;28;20110;-67
2021/06/11 02:25:28;;;;;;;5.63;2.95;;;;;;;;;;8320817;28;20466;-66
2021/06/11 02:29:34;;;;;;;11.88;3.63;;;;;;;;;;8330244;28;20040;-67
2021/06/11 02:33:40;;;;;;;7.03;3.35;;;;;;;;;;8327993;28;20052;-67
2021/06/11 02:37:45;;;;;;;5.70;3.35;;;;;;;;;;8329154;28;20071;-67
2021/06/11 02:42:01;;;;;;;5.90;3.15;;;;;;;;;;8329188;28;20367;-67
2021/06/11 02:46:42;;;;;;;8.55;3.67;;;;;;;;;;8327975;28;20450;-66
2021/06/11 02:50:57;;;;;;;5.90;3.38;;;;;;;;;;8305676;28;20394;-67
2021/06/11 02:55:06;;;;;;;4.97;3.50;;;;;;;;;;8329832;28;20052;-66
2021/06/11 02:59:25;;;;;;;5.57;3.30;;;;;;;;;;8311805;28;20479;-66
2021/06/11 03:03:34;;;;;;;5.47;3.53;;;;;;;;;;8327082;28;20062;-67
2021/06/11 03:07:40;;;;;;;6.72;3.95;;;;;;;;;;8327685;28;20036;-67
2021/06/11 03:11:45;;;;;;;4.82;3.25;;;;;;;;;;8311068;28;20375;-67
2021/06/11 03:15:51;;;;;;;7.32;4.03;;;;;;;;;;8329068;28;20451;-67
2021/06/11 03:20:05;;;;;;;7.75;3.28;;;;;;;;;;8326602;28;20386;-66
2021/06/11 03:24:16;;;;;;;8.63;4.47;;;;;;;;;;8327337;28;20383;-66
2021/06/11 03:28:33;;;;;;;7.40;3.22;;;;;;;;;;8327162;28;20052;-67
2021/06/11 03:32:46;;;;;;;7.78;4.95;;;;;;;;;;8328790;28;20485;-66
2021/06/11 03:36:52;;;;;;;8.65;4.82;;;;;;;;;;8327194;28;20044;-66
2021/06/11 03:40:57;;;;;;;7.47;4.35;;;;;;;;;;8326382;28;20390;-67
2021/06/11 03:45:01;;;;;;;5.85;3.83;;;;;;;;;;8325512;28;20364;-67
2021/06/11 03:49:07;;;;;;;8.35;4.13;;;;;;;;;;8326222;28;20379;-67
2021/06/11 03:53:14;;;;;;;6.70;3.75;;;;;;;;;;8325249;28;20483;-67
2021/06/11 03:57:21;;;;;;;6.57;4.32;;;;;;;;;;8326900;28;20070;-66
2021/06/11 04:01:29;;;;;;;14.90;6.95;;;;;;;;;;8309364;28;20359;-66
2021/06/11 04:05:36;;;;;;;18.17;8.23;;;;;;;;;;8325913;28;20048;-66
2021/06/11 04:09:49;;;;;;;14.93;7.22;;;;;;;;;;8325482;28;20474;-66
2021/06/11 04:13:55;;;;;;;13.80;6.45;;;;;;;;;;8326693;28;20052;-66
2021/06/11 04:18:04;;;;;;;10.30;4.65;;;;;;;;;;8325739;28;20455;-67
2021/06/11 04:22:14;;;;;;;15.35;4.90;;;;;;;;;;8326919;28;20052;-67
2021/06/11 04:26:22;;;;;;;11.20;5.28;;;;;;;;;;8326422;28;20455;-67
2021/06/11 04:30:27;;;;;;;;;;;;;;;;;;8325053;28;20066;-66
2021/06/11 04:34:34;;;;;;;17.80;5.47;;;;;;;;;;8324620;28;20266;-67
2021/06/11 04:38:59;;;;;;;10.10;6.30;;;;;;;;;;8326204;28;20060;-66
2021/06/11 04:43:04;;;;;;;12.45;6.10;;;;;;;;;;8325121;28;20468;-67
2021/06/11 04:47:09;;;;;;;11.57;5.97;;;;;;;;;;8324855;28;20467;-67
2021/06/11 04:51:14;;;;;;;11.05;6.55;;;;;;;;;;8324522;28;20055;-67
2021/06/11 04:55:20;;;;;;;10.60;5.45;;;;;;;;;;8326460;28;20568;-67
2021/06/11 04:59:25;;;;;;;15.07;4.93;;;;;;;;;;8322993;28;20458;-68
2021/06/11 05:03:29;;;;;;;23.42;6.30;;;;;;;;;;8324378;28;20471;-67
2021/06/11 05:07:36;;;;;;;10.40;5.22;;;;;;;;;;8324088;28;20378;-67
2021/06/11 05:11:41;;;;;;;12.55;6.22;;;;;;;;;;8326626;28;20514;-68
2021/06/11 05:15:46;;;;;;;11.63;5.03;;;;;;;;;;8324528;28;20406;-67
2021/06/11 05:19:50;;;;;;;17.13;5.68;;;;;;;;;;8323827;28;20375;-67
2021/06/11 05:23:54;;;;;;;14.15;4.55;;;;;;;;;;8323649;28;20470;-68
2021/06/11 05:27:59;;;;;;;14.88;5.40;;;;;;;;;;8326661;28;20471;-67
2021/06/11 05:32:03;;;;;;;11.40;5.05;;;;;;;;;;8324155;28;20364;-68
2021/06/11 05:36:08;;;;;;;29.02;5.88;;;;;;;;;;8322088;28;20389;-67
2021/06/11 05:40:13;;;;;;;13.27;4.60;;;;;;;;;;8325159;28;20070;-67
2021/06/11 05:44:18;;;;;;;10.50;4.82;;;;;;;;;;8323953;28;20463;-68
2021/06/11 05:48:24;;;;;;;9.43;4.13;;;;;;;;;;8324505;28;20469;-67
2021/06/11 05:52:29;;;;;;;8.13;4.20;;;;;;;;;;8326192;28;20348;-67
2021/06/11 05:56:33;;;;;;;9.63;3.63;;;;;;;;;;8325317;28;20423;-69
2021/06/11 06:00:38;;;;;;;5.05;3.50;;;;;;;;;;8323969;28;20375;-67
2021/06/11 06:04:43;;;;;;;5.47;3.53;;;;;;;;;;8324654;28;20486;-67
2021/06/11 06:08:52;;;;;;;5.43;3.55;;;;;;;;;;8326285;28;20040;-67
2021/06/11 06:12:56;;;;;;;5.35;3.60;;;;;;;;;;8325696;28;20383;-69
2021/06/11 06:17:02;;;;;;;7.75;3.28;;;;;;;;;;8326006;28;20447;-68
2021/06/11 06:21:07;;;;;;;5.90;3.38;;;;;;;;;;8326417;28;20489;-68
2021/06/11 06:25:13;;;;;;;8.30;3.95;;;;;;;;;;8322276;28;20378;-67
2021/06/11 06:29:18;;;;;;;5.03;3.47;;;;;;;;;;8325380;28;20070;-68
2021/06/11 06:33:23;;;;;;;6.05;3.45;;;;;;;;;;8325177;28;20048;-68
2021/06/11 06:37:29;;;;;;;7.18;3.30;;;;;;;;;;8322864;28;20393;-67
2021/06/11 06:41:36;;;;;;;26.15;5.03;;;;;;;;;;8325038;28;20405;-68
2021/06/11 06:45:41;;;;;;;7.80;2.90;;;;;;;;;;8323310;28;20052;-67
2021/06/11 06:49:46;;;;;;;5.47;2.90;;;;;;;;;;8322552;28;20467;-68
2021/06/11 06:53:50;;;;;;;3.25;2.28;;;;;;;;;;8326723;28;20482;-68
2021/06/11 06:57:55;;;;;;;4.00;2.95;;;;;;;;;;8323184;28;20422;-68
2021/06/11 07:02:00;;;;;;;9.13;2.80;;;;;;;;;;8321839;28;20517;-68
2021/06/11 07:06:05;;;;;;;2.97;2.17;;;;;;;;;;8324341;28;20085;-67
2021/06/11 07:10:11;;;;;;;2.47;2.22;;;;;;;;;;8322364;28;20390;-67
2021/06/11 07:14:16;;;;;;;4.43;2.40;;;;;;;;;;8328966;28;20424;-69
2021/06/11 07:18:20;;;;;;;8.05;2.20;;;;;;;;;;8330485;28;20661;-68
2021/06/11 07:22:26;;;;;;;3.58;2.30;;;;;;;;;;8328338;28;20425;-69
2021/06/11 07:26:31;;;;;;;4.05;1.90;;;;;;;;;;8327568;28;20382;-68
2021/06/11 07:30:36;;;;;;;3.03;1.88;;;;;;;;;;8329878;28;20538;-69
2021/06/11 07:34:41;;;;;;;2.78;1.80;;;;;;;;;;8328974;28;20482;-69
2021/06/11 07:38:46;;;;;;;3.90;2.17;;;;;;;;;;8328875;28;20479;-69
2021/06/11 07:42:53;;;;;;;3.75;1.52;;;;;;;;;;8324991;28;20398;-68
2021/06/11 07:46:56;;;;;;;2.30;1.50;;;;;;;;;;8326666;28;20498;-69
2021/06/11 07:51:01;;;;;;;4.25;1.50;;;;;;;;;;8328624;28;20497;-68
2021/06/11 07:55:09;;;;;;;3.67;1.75;;;;;;;;;;8325751;28;20508;-69
2021/06/11 07:59:15;;;;;;;3.00;1.58;;;;;;;;;;8328398;28;20065;-69
2021/06/11 08:03:20;;;;;;;5.53;1.77;;;;;;;;;;8328593;28;20347;-67
2021/06/11 08:07:29;;;;;;;2.88;1.40;;;;;;;;;;8327035;28;20387;-68
2021/06/11 08:11:34;;;;;;;4.07;1.27;;;;;;;;;;8330421;28;20074;-69
2021/06/11 08:15:39;;;;;;;5.25;1.60;;;;;;;;;;8328680;28;20467;-68
2021/06/11 08:19:44;;;;;;;2.00;1.40;;;;;;;;;;8326271;28;20052;-68
2021/06/11 08:23:49;;;;;;;1.48;0.88;;;;;;;;;;8323253;28;20469;-68
2021/06/11 08:27:56;;;;;;;3.75;1.10;;;;;;;;;;8324952;28;20350;-68
2021/06/11 08:32:03;;;;;;;3.72;1.75;;;;;;;;;;8327487;28;20348;-69
2021/06/11 08:36:07;;;;;;;14.80;9.93;;;;;;;;;;8324877;28;20366;-68
2021/06/11 08:40:15;;;;;;;12.43;7.03;;;;;;;;;;8328802;28;20346;-68
2021/06/11 08:44:21;;;;;;;22.63;12.38;;;;;;;;;;8325725;28;20074;-68
2021/06/11 08:48:25;;;;;;;4.60;1.80;;;;;;;;;;8326225;28;20374;-68
2021/06/11 08:52:30;;;;;;;6.03;1.27;;;;;;;;;;8325393;28;20056;-68
2021/06/11 08:56:36;;;;;;;4.70;1.35;;;;;;;;;;8325260;28;20390;-68
2021/06/11 09:00:42;;;;;;;3.20;1.40;;;;;;;;;;8325683;28;20110;-68
2021/06/11 09:04:54;;;;;;;1.60;1.02;;;;;;;;;;8325720;28;20386;-69
2021/06/11 09:09:05;;;;;;;2.92;1.30;;;;;;;;;;8328075;28;20344;-68
2021/06/11 09:13:10;;;;;;;4.43;1.30;;;;;;;;;;8323488;28;20355;-68
2021/06/11 09:17:32;;;;;;;4.20;1.60;;;;;;;;;;8325117;28;20489;-69
2021/06/11 09:21:49;;;;;;;6.05;1.20;;;;;;;;;;8325824;28;20470;-68
2021/06/11 09:25:54;;;;;;;2.88;0.90;;;;;;;;;;8327144;28;20451;-69
2021/06/11 09:30:00;;;;;;;4.72;1.10;;;;;;;;;;8328627;28;20338;-69
2021/06/11 09:34:19;;;;;;;;;;;;;;;;;;8324945;28;20344;-68
2021/06/11 09:38:27;;;;;;;1.52;0.98;;;;;;;;;;8309708;28;20273;-69
2021/06/11 09:42:37;;;;;;;1.30;0.90;;;;;;;;;;8325145;28;20044;-68
2021/06/11 09:46:47;;;;;;;1.92;0.63;;;;;;;;;;8324043;28;20379;-68
2021/06/11 09:50:52;;;;;;;1.45;0.85;;;;;;;;;;8322095;28;20052;-68
2021/06/11 09:54:57;;;;;;;3.47;1.00;;;;;;;;;;8324722;28;20601;-68
2021/06/11 09:59:04;;;;;;;4.47;1.30;;;;;;;;;;8307645;28;20118;-68
2021/06/11 10:03:16;;;;;;;17.23;3.08;;;;;;;;;;8323245;28;20447;-69
2021/06/11 10:07:22;;;;;;;1.77;1.08;;;;;;;;;;8324573;28;20455;-68
2021/06/11 10:11:27;;;;;;;1.90;1.20;;;;;;;;;;8323628;28;20466;-68
2021/06/11 10:15:33;;;;;;;3.05;1.27;;;;;;;;;;8321888;28;20044;-69
2021/06/11 10:19:38;;;;;;;4.97;1.52;;;;;;;;;;8325059;28;20374;-69
2021/06/11 10:23:44;;;;;;;1.83;1.25;;;;;;;;;;8323788;28;20363;-69
2021/06/11 10:27:50;;;;;;;3.20;1.10;;;;;;;;;;8321811;28;20336;-69
2021/06/11 10:31:55;;;;;;;2.10;1.33;;;;;;;;;;8322811;28;20059;-68
2021/06/11 10:36:00;;;;;;;11.23;6.20;;;;;;;;;;8323651;28;20348;-68
2021/06/11 10:40:32;;;;;;;7.13;1.73;;;;;;;;;;8323409;28;20052;-70
2021/06/11 10:44:50;;;;;;;5.68;2.25;;;;;;;;;;8307349;28;20487;-69
2021/06/11 10:49:09;;;;;;;4.00;1.83;;;;;;;;;;8325893;28;20463;-69
2021/06/11 10:53:28;;;;;;;2.17;1.08;;;;;;;;;;8328550;28;20052;-68
2021/06/11 10:57:32;;;;;;;8.30;1.35;;;;;;;;;;8327973;28;20402;-71
2021/06/11 11:01:35;;;;;;;2.22;1.20;;;;;;;;;;8326565;28;20447;-69
2021/06/11 11:05:42;;;;;;;3.22;1.20;;;;;;;;;;8326609;28;20413;-70
2021/06/11 11:09:55;;;;;;;2.28;1.17;;;;;;;;;;8328425;28;20360;-69
2021/06/11 11:14:03;;;;;;;5.72;1.17;;;;;;;;;;8325847;28;20358;-70
2021/06/11 11:18:15;;;;;;;5.97;1.92;;;;;;;;;;8327954;28;20386;-71
2021/06/11 11:22:39;;;;;;;5.30;1.63;;;;;;;;;;8326806;28;20366;-70
2021/06/11 11:26:51;;;;;;;2.50;1.30;;;;;;;;;;8327589;28;20367;-71
2021/06/11 11:30:56;;;;;;;2.15;1.25;;;;;;;;;;8326174;28;20074;-72
2021/06/11 11:35:00;;;;;;;3.97;2.03;;;;;;;;;;8329875;28;20340;-71
2021/06/11 11:39:09;;;;;;;1.80;1.40;;;;;;;;;;8324247;28;20456;-72
2021/06/11 11:43:14;;;;;;;3.88;1.40;;;;;;;;;;8325577;28;20363;-72
2021/06/11 11:47:19;;;;;;;3.85;1.90;;;;;;;;;;8327171;28;20481;-71
2021/06/11 11:51:25;;;;;;;5.20;2.38;;;;;;;;;;8327051;28;20447;-71
2021/06/11 11:55:30;;;;;;;4.30;1.90;;;;;;;;;;8326780;28;20066;-71
2021/06/11 11:59:35;;;;;;;4.50;2.08;;;;;;;;;;8325176;28;20393;-70
2021/06/11 12:03:40;;;;;;;3.30;1.80;;;;;;;;;;8329762;28;20366;-71
2021/06/11 12:07:45;;;;;;;4.90;2.33;;;;;;;;;;8327018;28;20044;-70
2021/06/11 12:11:50;;;;;;;3.00;2.00;;;;;;;;;;8326845;28;20463;-70
2021/06/11 12:15:55;;;;;;;3.08;1.90;;;;;;;;;;8325966;28;20375;-69
2021/06/11 12:20:00;;;;;;;4.03;2.15;;;;;;;;;;8326061;28;20442;-70
2021/06/11 12:24:05;;;;;;;2.85;1.67;;;;;;;;;;8325625;28;20364;-70
2021/06/11 12:28:10;;;;;;;2.03;1.60;;;;;;;;;;8323922;28;20371;-70
2021/06/11 12:32:15;;;;;;;3.15;1.90;;;;;;;;;;8325413;28;20439;-75
2021/06/11 12:36:20;;;;;;;2.72;1.70;;;;;;;;;;8325000;28;20048;-70
2021/06/11 12:40:24;;;;;;;3.13;1.92;;;;;;;;;;8327428;28;20363;-70
2021/06/11 12:44:29;;;;;;;2.88;1.85;;;;;;;;;;8323456;28;20105;-68
2021/06/11 12:48:34;;;;;;;8.68;2.00;;;;;;;;;;8324746;28;20363;-70
2021/06/11 12:52:38;;;;;;;2.75;1.83;;;;;;;;;;8325159;28;20366;-70
2021/06/11 12:56:44;;;;;;;1.92;1.60;;;;;;;;;;8325435;28;20070;-70
2021/06/11 13:00:48;;;;;;;2.08;1.88;;;;;;;;;;8323076;28;20470;-70
2021/06/11 13:04:53;;;;;;;4.05;2.17;;;;;;;;;;8322003;28;20483;-70
2021/06/11 13:08:59;;;;;;;16.13;5.57;;;;;;;;;;8322730;28;20464;-69
2021/06/11 13:13:04;;;;;;;11.93;5.43;;;;;;;;;;8323917;28;20504;-69
2021/06/11 13:17:09;;;;;;;2.72;1.90;;;;;;;;;;8306276;28;21805;-69
2021/06/11 13:21:13;;;;;;;16.65;7.13;;;;;;;;;;8324493;28;20541;-71
2021/06/11 13:25:19;;;;;;;32.75;11.20;;;;;;;;;;8322520;28;20376;-70
2021/06/11 13:29:25;;;;;;;28.17;11.77;;;;;;;;;;8322400;28;20459;-70
2021/06/11 13:33:30;;;;;;;3.90;2.17;;;;;;;;;;8323529;28;20398;-70
2021/06/11 13:37:35;;;;;;;3.15;1.65;;;;;;;;;;8320903;28;20494;-70
2021/06/11 13:41:41;;;;;;;2.72;1.88;;;;;;;;;;8322932;28;20463;-71
2021/06/11 13:45:45;;;;;;;2.95;1.70;;;;;;;;;;8322647;28;20435;-72
2021/06/11 13:49:50;;;;;;;1.65;1.55;;;;;;;;;;8322706;28;20066;-71
2021/06/11 13:53:55;;;;;;;7.63;2.10;;;;;;;;;;8324212;28;20467;-72
2021/06/11 13:58:01;;;;;;;2.20;1.83;;;;;;;;;;8323262;28;20368;-72
2021/06/11 14:02:05;;;;;;;4.35;2.03;;;;;;;;;;8321715;28;20443;-71
2021/06/11 14:06:11;;;;;;;3.53;2.45;;;;;;;;;;8322756;28;20462;-71
2021/06/11 14:10:16;;;;;;;5.55;2.67;;;;;;;;;;8323117;28;20358;-71
2021/06/11 14:14:21;;;;;;;3.03;2.72;;;;;;;;;;8321508;28;20177;-71
2021/06/11 14:18:26;;;;;;;2.47;2.05;;;;;;;;;;8305174;28;20358;-70
2021/06/11 14:22:31;;;;;;;3.65;2.17;;;;;;;;;;8324250;28;20466;-70
2021/06/11 14:26:35;;;;;;;3.75;2.08;;;;;;;;;;8329913;28;20070;-71
2021/06/11 14:30:43;;;;;;;5.80;1.67;;;;;;;;;;8330174;28;20874;-70
2021/06/11 14:34:49;;;;;;;2.22;1.65;;;;;;;;;;8327068;28;20494;-70
2021/06/11 14:38:54;;;;;;;2.22;1.80;;;;;;;;;;8329489;28;20398;-70
2021/06/11 14:43:00;;;;;;;3.03;1.67;;;;;;;;;;8327335;28;20103;-69
2021/06/11 14:47:05;;;;;;;4.22;1.80;;;;;;;;;;8328662;28;20449;-70
2021/06/11 14:51:10;;;;;;;4.63;2.13;;;;;;;;;;8331225;28;20496;-71
2021/06/11 14:55:15;;;;;;;3.88;1.95;;;;;;;;;;8328519;28;20459;-70
2021/06/11 14:59:20;;;;;;;2.83;2.28;;;;;;;;;;8329178;28;20079;-70
2021/06/11 15:03:27;;;;;;;7.80;3.60;;;;;;;;;;8328574;28;20470;-71
2021/06/11 15:07:31;;;;;;;9.07;3.88;;;;;;;;;;8327422;28;20418;-70
2021/06/11 15:11:37;;;;;;;11.52;4.00;;;;;;;;;;8328087;28;20101;-69
2021/06/11 15:15:43;;;;;;;11.18;4.28;;;;;;;;;;8329128;28;20450;-69
2021/06/11 15:19:47;;;;;;;6.43;3.70;;;;;;;;;;8328708;28;20056;-69
2021/06/11 15:23:53;;;;;;;11.35;4.20;;;;;;;;;;8310731;28;20356;-70
2021/06/11 15:27:58;;;;;;;10.57;5.75;;;;;;;;;;8327588;28;20375;-70
2021/06/11 15:32:07;;;;;;;7.60;4.57;;;;;;;;;;8326057;28;20505;-71
2021/06/11 15:36:13;;;;;;;9.15;4.43;;;;;;;;;;8327201;28;20462;-69
2021/06/11 15:40:18;;;;;;;6.50;4.05;;;;;;;;;;8327547;28;20367;-69
2021/06/11 15:44:23;;;;;;;11.57;3.85;;;;;;;;;;8326731;28;20458;-70
2021/06/11 15:48:26;;;;;;;9.15;4.47;;;;;;;;;;8326789;28;20387;-69
2021/06/11 15:52:31;;;;;;;10.15;4.20;;;;;;;;;;8325802;28;20461;-68
2021/06/11 15:56:37;;;;;;;6.47;4.30;;;;;;;;;;8326327;28;20101;-69
2021/06/11 16:00:42;;;;;;;5.78;4.38;;;;;;;;;;8326525;28;20625;-70
2021/06/11 16:04:48;;;;;;;7.57;4.53;;;;;;;;;;8326574;28;20479;-69
2021/06/11 16:08:53;;;;;;;12.18;6.43;;;;;;;;;;8308910;28;20343;-69
2021/06/11 16:12:59;;;;;;;13.30;5.93;;;;;;;;;;8328186;28;20040;-69
2021/06/11 16:17:05;;;;;;;10.23;5.53;;;;;;;;;;8327889;28;20366;-69
2021/06/11 16:21:10;;;;;;;14.90;5.63;;;;;;;;;;8326278;28;20445;-69
2021/06/11 16:25:18;;;;;;;10.00;5.57;;;;;;;;;;8326482;28;20463;-70
2021/06/11 16:29:22;;;;;;;9.38;5.32;;;;;;;;;;8325983;28;20378;-70
2021/06/11 16:33:27;;;;;;;8.43;5.25;;;;;;;;;;8326046;28;20356;-68
2021/06/11 16:37:35;;;;;;;17.95;5.60;;;;;;;;;;8323581;28;20494;-69
2021/06/11 16:41:39;;;;;;;24.40;6.88;;;;;;;;;;8324088;28;20444;-68
2021/06/11 16:45:44;;;;;;;8.52;5.10;;;;;;;;;;8323246;28;20044;-69
2021/06/11 16:49:49;;;;;;;9.80;4.70;;;;;;;;;;8324731;28;20040;-68
2021/06/11 16:53:54;;;;;;;8.30;4.85;;;;;;;;;;8325682;28;20133;-69
2021/06/11 16:57:59;;;;;;;10.40;4.60;;;;;;;;;;8325292;28;20462;-72
2021/06/11 17:02:04;;;;;;;10.52;4.93;;;;;;;;;;8323281;28;20048;-69
2021/06/11 17:06:09;;;;;;;11.13;4.75;;;;;;;;;;8324593;28;20417;-69
2021/06/11 17:10:16;;;;;;;17.48;9.90;;;;;;;;;;8324788;28;20363;-69
2021/06/11 17:14:20;;;;;;;9.52;4.57;;;;;;;;;;8324366;28;20358;-69
2021/06/11 17:18:24;;;;;;;14.15;5.10;;;;;;;;;;8324077;28;20481;-69
2021/06/11 17:22:36;;;;;;;15.55;6.20;;;;;;;;;;8324550;28;20468;-69
2021/06/11 17:26:42;;;;;;;16.10;6.20;;;;;;;;;;8323607;28;20476;-70
2021/06/11 17:30:48;;;;;;;15.18;6.32;;;;;;;;;;8325539;28;20048;-70
2021/06/11 17:34:54;;;;;;;13.38;5.50;;;;;;;;;;8322090;28;20479;-68
2021/06/11 17:39:04;;;;;;;10.88;4.85;;;;;;;;;;8323805;28;20371;-68
2021/06/11 17:43:10;;;;;;;12.57;5.25;;;;;;;;;;8322355;28;20374;-69
2021/06/11 17:47:15;;;;;;;21.27;4.93;;;;;;;;;;8321419;28;20486;-69
2021/06/11 17:51:19;;;;;;;13.63;3.88;;;;;;;;;;8325389;28;20338;-69
2021/06/11 17:55:37;;;;;;;9.77;3.70;;;;;;;;;;8320913;28;20462;-69
2021/06/11 17:59:45;;;;;;;10.77;3.95;;;;;;;;;;8323205;28;20052;-68
2021/06/11 18:03:50;;;;;;;8.68;3.67;;;;;;;;;;8323055;28;20455;-69
2021/06/11 18:07:55;;;;;;;4.22;3.40;;;;;;;;;;8323144;28;20074;-69
2021/06/11 18:12:01;;;;;;;7.70;3.85;;;;;;;;;;8325794;28;20342;-69
2021/06/11 18:16:07;;;;;;;5.60;3.35;;;;;;;;;;8322014;28;20485;-69
2021/06/11 18:20:24;;;;;;;5.13;3.42;;;;;;;;;;8323375;28;20393;-68
2021/06/11 18:24:31;;;;;;;7.00;4.13;;;;;;;;;;8323292;28;20055;-68
2021/06/11 18:28:40;;;;;;;6.15;3.55;;;;;;;;;;8322609;28;20379;-69
2021/06/11 18:32:46;;;;;;;6.78;3.50;;;;;;;;;;8321814;28;20338;-69
2021/06/11 18:36:51;;;;;;;5.63;3.50;;;;;;;;;;8322836;28;20495;-68
2021/06/11 18:40:55;;;;;;;6.72;3.38;;;;;;;;;;8323023;28;20348;-69
2021/06/11 18:45:01;;;;;;;5.80;3.63;;;;;;;;;;8322830;28;20485;-68
2021/06/11 18:49:08;;;;;;;6.10;3.33;;;;;;;;;;8321551;28;20457;-69
2021/06/11 18:53:11;;;;;;;5.53;3.42;;;;;;;;;;8322099;28;20501;-68
2021/06/11 18:57:16;;;;;;;8.18;3.42;;;;;;;;;;8321824;28;20455;-69
2021/06/11 19:01:34;;;;;;;7.97;3.60;;;;;;;;;;8321471;28;20406;-69
2021/06/11 19:05:39;;;;;;;12.20;3.70;;;;;;;;;;8321334;28;20360;-68
2021/06/11 19:09:59;;;;;;;7.97;3.50;;;;;;;;;;8324935;28;20048;-68
2021/06/11 19:14:06;;;;;;;9.43;3.78;;;;;;;;;;8329434;28;20435;-68
2021/06/11 19:18:11;;;;;;;5.97;3.45;;;;;;;;;;8328092;28;20463;-68
2021/06/11 19:22:21;;;;;;;6.15;3.08;;;;;;;;;;8327323;28;20474;-68
2021/06/11 19:26:29;;;;;;;4.82;4.00;;;;;;;;;;8325607;28;20576;-69
2021/06/11 19:30:36;;;;;;;6.55;4.32;;;;;;;;;;8325864;28;20056;-69
2021/06/11 19:34:55;;;;;;;12.10;4.07;;;;;;;;;;8325266;28;20451;-68
2021/06/11 19:38:59;;;;;;;6.38;4.85;;;;;;;;;;8325275;28;20509;-69
2021/06/11 19:43:06;;;;;;;12.55;5.10;;;;;;;;;;8327096;28;20486;-69
2021/06/11 19:47:11;;;;;;;6.57;4.10;;;;;;;;;;8326317;28;20410;-68
2021/06/11 19:51:21;;;;;;;7.47;4.30;;;;;;;;;;8328630;28;20335;-68
2021/06/11 19:55:54;;;;;;;9.75;4.00;;;;;;;;;;8325700;28;20455;-70
2021/06/11 20:00:14;;;;;;;11.07;5.05;;;;;;;;;;8325293;28;20328;-69
2021/06/11 20:04:20;;;;;;;9.75;5.35;;;;;;;;;;8326116;28;20395;-68
2021/06/11 20:08:26;;;;;;;8.20;4.93;;;;;;;;;;8324169;28;20052;-69
2021/06/11 20:12:32;;;;;;;9.60;5.28;;;;;;;;;;8326859;28;20458;-68
2021/06/11 20:16:40;;;;;;;8.13;5.10;;;;;;;;;;8324387;28;20413;-69
2021/06/11 20:20:45;;;;;;;5.97;4.63;;;;;;;;;;8325217;28;20367;-70
2021/06/11 20:24:51;;;;;;;8.30;5.28;;;;;;;;;;8326370;28;20431;-69
2021/06/11 20:28:56;;;;;;;7.22;4.97;;;;;;;;;;8326051;28;20359;-69
2021/06/11 20:33:02;;;;;;;16.17;6.28;;;;;;;;;;8323187;28;20360;-69
2021/06/11 20:37:21;;;;;;;16.60;5.88;;;;;;;;;;8323462;28;20048;-69
2021/06/11 20:41:27;;;;;;;10.88;5.40;;;;;;;;;;8325327;28;20458;-68
2021/06/11 20:45:33;;;;;;;15.18;6.07;;;;;;;;;;8324513;28;20351;-69
2021/06/11 20:49:37;;;;;;;10.80;5.53;;;;;;;;;;8325270;28;20362;-69
2021/06/11 20:53:42;;;;;;;11.82;6.30;;;;;;;;;;8325671;28;20744;-69
2021/06/11 20:57:47;;;;;;;13.30;5.75;;;;;;;;;;8323750;28;20048;-69
2021/06/11 21:01:52;;;;;;;9.88;5.18;;;;;;;;;;8324020;28;20467;-69
2021/06/11 21:05:56;;;;;;;6.32;4.43;;;;;;;;;;8325059;28;20471;-69
2021/06/11 21:10:02;;;;;;;8.82;5.35;;;;;;;;;;8325572;28;20356;-69
2021/06/11 21:14:07;;;;;;;8.13;5.30;;;;;;;;;;8325664;28;20474;-68
2021/06/11 21:18:12;;;;;;;7.60;5.22;;;;;;;;;;8324928;28;20485;-68
2021/06/11 21:22:17;;;;;;;5.82;4.32;;;;;;;;;;8322686;28;20529;-71
2021/06/11 21:26:24;;;;;;;9.43;5.15;;;;;;;;;;8323867;28;20382;-71
2021/06/11 21:30:32;;;;;;;5.95;4.38;;;;;;;;;;8323101;28;20510;-70
2021/06/11 21:34:38;;;;;;;6.88;4.40;;;;;;;;;;8323686;28;20470;-70
2021/06/11 21:38:43;;;;;;;6.72;4.57;;;;;;;;;;8324749;28;20374;-71
2021/06/11 21:42:54;;;;;;;13.73;5.35;;;;;;;;;;8323705;28;20479;-70
2021/06/11 21:46:59;;;;;;;10.40;5.57;;;;;;;;;;8307705;28;20344;-70
2021/06/11 21:51:05;;;;;;;9.32;5.85;;;;;;;;;;8324768;28;20450;-70
2021/06/11 21:55:11;;;;;;;15.13;5.32;;;;;;;;;;8324258;28;20355;-70
2021/06/11 21:59:16;;;;;;;8.57;4.82;;;;;;;;;;8323136;28;20528;-69
2021/06/11 22:03:21;;;;;;;7.32;5.07;;;;;;;;;;8323924;28;20347;-70
2021/06/11 22:07:26;;;;;;;7.88;5.15;;;;;;;;;;8324441;28;20455;-70
2021/06/11 22:11:31;;;;;;;9.20;4.85;;;;;;;;;;8324637;28;20348;-70
2021/06/11 22:15:36;;;;;;;8.93;5.35;;;;;;;;;;8323225;28;20470;-70
2021/06/11 22:19:40;;;;;;;8.40;5.30;;;;;;;;;;8322889;28;20477;-70
2021/06/11 22:23:45;;;;;;;10.73;5.90;;;;;;;;;;8322974;28;20356;-70
2021/06/11 22:27:51;;;;;;;9.80;5.30;;;;;;;;;;8323148;28;20374;-70
2021/06/11 22:31:56;;;;;;;7.30;5.40;;;;;;;;;;8323650;28;20381;-70
2021/06/11 22:36:04;;;;;;;13.57;7.25;;;;;;;;;;8322847;28;20374;-69
2021/06/11 22:40:15;;;;;;;10.23;6.05;;;;;;;;;;8322752;28;20052;-69
2021/06/11 22:44:20;;;;;;;13.85;6.03;;;;;;;;;;8309102;28;20354;-68
2021/06/11 22:48:25;;;;;;;13.35;5.70;;;;;;;;;;8329892;28;20367;-69
2021/06/11 22:52:31;;;;;;;11.45;5.47;;;;;;;;;;8329906;28;20398;-69
2021/06/11 22:56:37;;;;;;;9.80;7.30;;;;;;;;;;8331103;28;20336;-69
2021/06/11 23:00:42;;;;;;;11.60;7.30;;;;;;;;;;8326930;28;20462;-69
2021/06/11 23:04:48;;;;;;;11.68;6.20;;;;;;;;;;8328651;28;20493;-69
2021/06/11 23:08:51;;;;;;;12.82;7.40;;;;;;;;;;8329363;28;20481;-70
2021/06/11 23:12:57;;;;;;;12.77;6.90;;;;;;;;;;8309730;28;20459;-69
2021/06/11 23:17:02;;;;;;;9.90;7.00;;;;;;;;;;8311051;28;20114;-70
2021/06/11 23:21:07;;;;;;;15.27;7.70;;;;;;;;;;8329031;28;20477;-69
2021/06/11 23:25:14;;;;;;;12.40;7.65;;;;;;;;;;8329193;28;20044;-69
2021/06/11 23:29:22;;;;;;;7.95;6.32;;;;;;;;;;8329636;28;20417;-70
2021/06/11 23:33:30;;;;;;;9.38;6.68;;;;;;;;;;8326855;28;20363;-69
2021/06/11 23:37:38;;;;;;;8.98;6.18;;;;;;;;;;8327044;28;20409;-71
2021/06/11 23:41:43;;;;;;;8.25;5.57;;;;;;;;;;8326906;28;20581;-69
2021/06/11 23:45:48;;;;;;;10.05;6.28;;;;;;;;;;8328284;28;20056;-69
2021/06/11 23:49:52;;;;;;;11.52;6.25;;;;;;;;;;8328422;28;20477;-70
2021/06/11 23:53:58;;;;;;;9.55;6.65;;;;;;;;;;8327324;28;20052;-69
2021/06/11 23:58:03;;;;;;;9.10;6.72;;;;;;;;;;8326594;28;20363;-70
